sensor_id;sensor_type;location;lat;lon;timestamp;pressure;altitude;pressure_sealevel;temperature;humidity
8061;BME280;4073;42.626;25.386;2023-01-08T00:02:16;97792.78;;;2.16;100.00
8061;BME280;4073;42.626;25.386;2023-01-08T00:04:41;97778.59;;;1.98;100.00
8061;BME280;4073;42.626;25.386;2023-01-08T00:07:08;97787.50;;;2.16;100.00
8061;BME280;4073;42.626;25.386;2023-01-08T00:09:33;97788.72;;;2.20;100.00
8061;BME280;4073;42.626;25.386;2023-01-08T00:11:59;97763.59;;;1.98;100.00
8061;BME280;4073;42.626;25.386;2023-01-08T00:14:24;97792.00;;;2.16;100.00
8061;BME280;4073;42.626;25.386;2023-01-08T00:16:50;97767.84;;;1.99;100.00
8061;BME280;4073;42.626;25.386;2023-01-08T00:19:16;97790.56;;;2.13;100.00
8061;BME280;4073;42.626;25.386;2023-01-08T00:21:41;97790.16;;;2.03;100.00
8061;BME280;4073;42.626;25.386;2023-01-08T00:24:07;97769.25;;;1.82;100.00
8061;BME280;4073;42.626;25.386;2023-01-08T00:26:32;97788.13;;;2.05;100.00
8061;BME280;4073;42.626;25.386;2023-01-08T00:28:58;97791.56;;;1.99;100.00
8061;BME280;4073;42.626;25.386;2023-01-08T00:31:23;97765.00;;;1.88;100.00
8061;BME280;4073;42.626;25.386;2023-01-08T00:33:49;97783.06;;;2.04;100.00
8061;BME280;4073;42.626;25.386;2023-01-08T00:36:16;97769.06;;;1.90;100.00
8061;BME280;4073;42.626;25.386;2023-01-08T00:38:43;97784.06;;;2.03;100.00
8061;BME280;4073;42.626;25.386;2023-01-08T00:41:11;97785.28;;;2.00;100.00
8061;BME280;4073;42.626;25.386;2023-01-08T00:43:37;97758.31;;;1.79;100.00
8061;BME280;4073;42.626;25.386;2023-01-08T00:46:03;97791.78;;;1.91;100.00
8061;BME280;4073;42.626;25.386;2023-01-08T00:48:28;97780.41;;;1.91;100.00
8061;BME280;4073;42.626;25.386;2023-01-08T00:50:55;97782.66;;;1.94;100.00
8061;BME280;4073;42.626;25.386;2023-01-08T00:53:21;97788.13;;;1.92;100.00
8061;BME280;4073;42.626;25.386;2023-01-08T00:55:47;97787.53;;;1.90;100.00
8061;BME280;4073;42.626;25.386;2023-01-08T00:58:12;97767.41;;;1.70;100.00
8061;BME280;4073;42.626;25.386;2023-01-08T01:00:38;97770.84;;;1.64;100.00
8061;BME280;4073;42.626;25.386;2023-01-08T01:03:04;97791.56;;;1.73;100.00
8061;BME280;4073;42.626;25.386;2023-01-08T01:05:29;97787.91;;;1.74;100.00
8061;BME280;4073;42.626;25.386;2023-01-08T01:07:55;97761.50;;;1.48;100.00
8061;BME280;4073;42.626;25.386;2023-01-08T01:10:21;97785.06;;;1.63;100.00
8061;BME280;4073;42.626;25.386;2023-01-08T01:12:46;97782.81;;;1.60;100.00
8061;BME280;4073;42.626;25.386;2023-01-08T01:15:13;97787.25;;;1.59;100.00
8061;BME280;4073;42.626;25.386;2023-01-08T01:17:41;97759.66;;;1.36;100.00
8061;BME280;4073;42.626;25.386;2023-01-08T01:20:08;97792.53;;;1.53;100.00
8061;BME280;4073;42.626;25.386;2023-01-08T01:22:35;97782.81;;;1.53;100.00
8061;BME280;4073;42.626;25.386;2023-01-08T01:25:00;97780.38;;;1.58;100.00
8061;BME280;4073;42.626;25.386;2023-01-08T01:27:26;97773.50;;;1.64;100.00
8061;BME280;4073;42.626;25.386;2023-01-08T01:29:52;97769.88;;;1.65;100.00
8061;BME280;4073;42.626;25.386;2023-01-08T01:32:18;97768.44;;;1.69;100.00
8061;BME280;4073;42.626;25.386;2023-01-08T01:34:43;97741.44;;;1.54;100.00
8061;BME280;4073;42.626;25.386;2023-01-08T01:37:13;97752.00;;;1.60;100.00
8061;BME280;4073;42.626;25.386;2023-01-08T01:39:39;97752.63;;;1.82;100.00
8061;BME280;4073;42.626;25.386;2023-01-08T01:42:05;97755.88;;;1.84;100.00
8061;BME280;4073;42.626;25.386;2023-01-08T01:44:51;97745.53;;;1.89;100.00
8061;BME280;4073;42.626;25.386;2023-01-08T01:52:34;97761.31;;;1.69;100.00
8061;BME280;4073;42.626;25.386;2023-01-08T01:55:02;97756.88;;;1.76;100.00
8061;BME280;4073;42.626;25.386;2023-01-08T01:57:30;97752.44;;;1.70;100.00
8061;BME280;4073;42.626;25.386;2023-01-08T01:59:58;97753.41;;;1.69;100.00
8061;BME280;4073;42.626;25.386;2023-01-08T02:02:25;97730.47;;;1.44;100.00
8061;BME280;4073;42.626;25.386;2023-01-08T02:04:51;97753.22;;;1.45;100.00
8061;BME280;4073;42.626;25.386;2023-01-08T02:07:38;97760.50;;;1.49;100.00
8061;BME280;4073;42.626;25.386;2023-01-08T02:10:11;97759.91;;;1.47;100.00
8061;BME280;4073;42.626;25.386;2023-01-08T02:12:57;97754.81;;;1.46;100.00
8061;BME280;4073;42.626;25.386;2023-01-08T02:15:45;97753.38;;;1.37;100.00
8061;BME280;4073;42.626;25.386;2023-01-08T02:18:21;97743.66;;;1.37;100.00
8061;BME280;4073;42.626;25.386;2023-01-08T02:26:06;97751.16;;;1.40;100.00
8061;BME280;4073;42.626;25.386;2023-01-08T02:28:41;97738.78;;;1.41;100.00
8061;BME280;4073;42.626;25.386;2023-01-08T02:31:08;97741.06;;;1.50;100.00
8061;BME280;4073;42.626;25.386;2023-01-08T02:33:34;97749.75;;;1.44;100.00
8061;BME280;4073;42.626;25.386;2023-01-08T02:41:39;97745.47;;;1.30;100.00
8061;BME280;4073;42.626;25.386;2023-01-08T02:44:08;97746.50;;;1.29;100.00
8061;BME280;4073;42.626;25.386;2023-01-08T02:46:38;97715.63;;;1.04;100.00
8061;BME280;4073;42.626;25.386;2023-01-08T02:49:09;97742.41;;;1.20;100.00
8061;BME280;4073;42.626;25.386;2023-01-08T02:51:43;97741.97;;;1.17;100.00
8061;BME280;4073;42.626;25.386;2023-01-08T02:54:16;97711.94;;;0.98;100.00
8061;BME280;4073;42.626;25.386;2023-01-08T02:56:48;97730.84;;;1.21;100.00
8061;BME280;4073;42.626;25.386;2023-01-08T02:59:14;97734.50;;;1.20;100.00
8061;BME280;4073;42.626;25.386;2023-01-08T03:01:42;97732.84;;;1.13;100.00
8061;BME280;4073;42.626;25.386;2023-01-08T03:04:13;97718.84;;;0.99;100.00
8061;BME280;4073;42.626;25.386;2023-01-08T03:06:42;97713.19;;;1.02;100.00
8061;BME280;4073;42.626;25.386;2023-01-08T03:09:09;97734.31;;;1.28;100.00
8061;BME280;4073;42.626;25.386;2023-01-08T03:14:14;97726.03;;;1.38;100.00
8061;BME280;4073;42.626;25.386;2023-01-08T03:16:57;97725.41;;;1.36;100.00
8061;BME280;4073;42.626;25.386;2023-01-08T03:19:39;97733.53;;;1.34;100.00
8061;BME280;4073;42.626;25.386;2023-01-08T03:22:09;97743.22;;;1.21;100.00
8061;BME280;4073;42.626;25.386;2023-01-08T03:24:37;97733.44;;;1.08;100.00
8061;BME280;4073;42.626;25.386;2023-01-08T03:27:06;97719.06;;;0.98;100.00
8061;BME280;4073;42.626;25.386;2023-01-08T03:29:34;97735.19;;;0.88;100.00
8061;BME280;4073;42.626;25.386;2023-01-08T03:32:04;97730.94;;;0.87;100.00
8061;BME280;4073;42.626;25.386;2023-01-08T03:34:34;97725.88;;;0.79;100.00
8061;BME280;4073;42.626;25.386;2023-01-08T03:37:03;97728.06;;;0.76;100.00
8061;BME280;4073;42.626;25.386;2023-01-08T03:40:08;97726.44;;;0.68;100.00
8061;BME280;4073;42.626;25.386;2023-01-08T03:42:32;97735.50;;;0.59;100.00
8061;BME280;4073;42.626;25.386;2023-01-08T03:44:59;97731.44;;;0.57;100.00
8061;BME280;4073;42.626;25.386;2023-01-08T03:47:26;97726.38;;;0.55;100.00
8061;BME280;4073;42.626;25.386;2023-01-08T03:49:55;97699.75;;;0.31;100.00
8061;BME280;4073;42.626;25.386;2023-01-08T03:52:27;97732.59;;;0.48;100.00
8061;BME280;4073;42.626;25.386;2023-01-08T03:54:53;97712.88;;;0.31;100.00
8061;BME280;4073;42.626;25.386;2023-01-08T03:57:19;97734.38;;;0.41;100.00
8061;BME280;4073;42.626;25.386;2023-01-08T03:59:45;97730.72;;;0.35;100.00
8061;BME280;4073;42.626;25.386;2023-01-08T04:02:11;97707.53;;;0.18;100.00
8061;BME280;4073;42.626;25.386;2023-01-08T04:04:36;97705.50;;;0.13;100.00
8061;BME280;4073;42.626;25.386;2023-01-08T04:07:02;97717.59;;;0.08;100.00
8061;BME280;4073;42.626;25.386;2023-01-08T04:09:27;97743.16;;;0.20;100.00
8061;BME280;4073;42.626;25.386;2023-01-08T04:11:53;97746.03;;;0.25;100.00
8061;BME280;4073;42.626;25.386;2023-01-08T04:14:18;97716.63;;;0.09;100.00
8061;BME280;4073;42.626;25.386;2023-01-08T04:16:44;97712.97;;;0.10;100.00
8061;BME280;4073;42.626;25.386;2023-01-08T04:19:12;97743.22;;;0.27;100.00
8061;BME280;4073;42.626;25.386;2023-01-08T04:21:39;97743.41;;;0.25;100.00
8061;BME280;4073;42.626;25.386;2023-01-08T04:24:04;97737.78;;;0.35;100.00
8061;BME280;4073;42.626;25.386;2023-01-08T04:26:30;97741.84;;;0.37;100.00
8061;BME280;4073;42.626;25.386;2023-01-08T04:28:56;97736.16;;;0.34;100.00
8061;BME280;4073;42.626;25.386;2023-01-08T04:31:22;97733.75;;;0.39;100.00
8061;BME280;4073;42.626;25.386;2023-01-08T04:33:47;97734.19;;;0.42;100.00
8061;BME280;4073;42.626;25.386;2023-01-08T04:36:13;97741.50;;;0.47;100.00
8061;BME280;4073;42.626;25.386;2023-01-08T04:38:39;97738.25;;;0.45;100.00
8061;BME280;4073;42.626;25.386;2023-01-08T04:41:05;97734.56;;;0.39;100.00
8061;BME280;4073;42.626;25.386;2023-01-08T04:43:30;97703.13;;;0.25;100.00
8061;BME280;4073;42.626;25.386;2023-01-08T04:45:57;97734.78;;;0.44;100.00
8061;BME280;4073;42.626;25.386;2023-01-08T04:48:23;97735.59;;;0.38;100.00
8061;BME280;4073;42.626;25.386;2023-01-08T04:50:48;97731.50;;;0.36;100.00
8061;BME280;4073;42.626;25.386;2023-01-08T04:53:15;97743.81;;;0.29;100.00
8061;BME280;4073;42.626;25.386;2023-01-08T04:55:40;97738.75;;;0.27;100.00
8061;BME280;4073;42.626;25.386;2023-01-08T04:58:06;97715.59;;;0.10;100.00
8061;BME280;4073;42.626;25.386;2023-01-08T05:00:32;97754.78;;;0.32;100.00
8061;BME280;4073;42.626;25.386;2023-01-08T05:02:57;97747.91;;;0.31;100.00
8061;BME280;4073;42.626;25.386;2023-01-08T05:05:22;97725.28;;;0.09;100.00
8061;BME280;4073;42.626;25.386;2023-01-08T05:07:48;97752.91;;;0.26;100.00
8061;BME280;4073;42.626;25.386;2023-01-08T05:10:13;97703.41;;;0.02;100.00
8061;BME280;4073;42.626;25.386;2023-01-08T05:12:39;97723.69;;;0.08;100.00
8061;BME280;4073;42.626;25.386;2023-01-08T05:15:05;97730.94;;;0.06;100.00
8061;BME280;4073;42.626;25.386;2023-01-08T05:17:30;97755.91;;;0.23;100.00
8061;BME280;4073;42.626;25.386;2023-01-08T05:19:56;97752.88;;;0.20;100.00
8061;BME280;4073;42.626;25.386;2023-01-08T05:22:21;97755.06;;;0.16;100.00
8061;BME280;4073;42.626;25.386;2023-01-08T05:24:47;97765.78;;;0.15;100.00
8061;BME280;4073;42.626;25.386;2023-01-08T05:27:12;97754.66;;;0.13;100.00
8061;BME280;4073;42.626;25.386;2023-01-08T05:29:37;97758.94;;;0.20;100.00
8061;BME280;4073;42.626;25.386;2023-01-08T05:32:03;97766.63;;;0.22;100.00
8061;BME280;4073;42.626;25.386;2023-01-08T05:34:30;97767.25;;;0.24;100.00
8061;BME280;4073;42.626;25.386;2023-01-08T05:36:56;97763.00;;;0.23;100.00
8061;BME280;4073;42.626;25.386;2023-01-08T05:39:21;97730.72;;;0.01;100.00
8061;BME280;4073;42.626;25.386;2023-01-08T05:41:46;97766.44;;;0.23;100.00
8061;BME280;4073;42.626;25.386;2023-01-08T05:44:12;97746.69;;;0.06;100.00
8061;BME280;4073;42.626;25.386;2023-01-08T05:46:38;97761.38;;;0.22;100.00
8061;BME280;4073;42.626;25.386;2023-01-08T05:49:03;97754.97;;;0.31;100.00
8061;BME280;4073;42.626;25.386;2023-01-08T05:51:28;97751.97;;;0.40;100.00
8061;BME280;4073;42.626;25.386;2023-01-08T05:53:54;97753.63;;;0.41;100.00
8061;BME280;4073;42.626;25.386;2023-01-08T05:56:19;97760.72;;;0.47;100.00
8061;BME280;4073;42.626;25.386;2023-01-08T05:58:45;97757.69;;;0.50;100.00
8061;BME280;4073;42.626;25.386;2023-01-08T06:01:12;97736.16;;;0.34;100.00
8061;BME280;4073;42.626;25.386;2023-01-08T06:03:40;97765.25;;;0.60;100.00
8061;BME280;4073;42.626;25.386;2023-01-08T06:06:06;97774.00;;;0.67;100.00
8061;BME280;4073;42.626;25.386;2023-01-08T06:08:32;97753.06;;;0.52;100.00
8061;BME280;4073;42.626;25.386;2023-01-08T06:11:03;97742.69;;;0.44;100.00
8061;BME280;4073;42.626;25.386;2023-01-08T06:13:31;97780.91;;;0.74;100.00
8061;BME280;4073;42.626;25.386;2023-01-08T06:16:00;97766.91;;;0.67;100.00
8061;BME280;4073;42.626;25.386;2023-01-08T06:18:28;97790.91;;;0.92;100.00
8061;BME280;4073;42.626;25.386;2023-01-08T06:20:53;97788.94;;;1.00;100.00
8061;BME280;4073;42.626;25.386;2023-01-08T06:23:19;97765.16;;;0.87;100.00
8061;BME280;4073;42.626;25.386;2023-01-08T06:25:54;97789.66;;;1.35;100.00
8061;BME280;4073;42.626;25.386;2023-01-08T06:28:20;97763.16;;;2.34;100.00
8061;BME280;4073;42.626;25.386;2023-01-08T06:30:45;97773.59;;;3.92;100.00
8061;BME280;4073;42.626;25.386;2023-01-08T06:33:11;97800.88;;;5.68;90.50
8061;BME280;4073;42.626;25.386;2023-01-08T06:35:36;97802.44;;;6.86;78.78
8061;BME280;4073;42.626;25.386;2023-01-08T06:38:02;97805.03;;;7.88;69.52
8061;BME280;4073;42.626;25.386;2023-01-08T06:40:27;97802.63;;;8.48;64.66
8061;BME280;4073;42.626;25.386;2023-01-08T06:42:53;97804.00;;;9.05;62.75
8061;BME280;4073;42.626;25.386;2023-01-08T06:45:18;97805.03;;;9.90;61.21
8061;BME280;4073;42.626;25.386;2023-01-08T06:47:44;97781.41;;;10.30;58.09
8061;BME280;4073;42.626;25.386;2023-01-08T06:50:10;97811.59;;;11.04;54.83
8061;BME280;4073;42.626;25.386;2023-01-08T06:52:37;97812.13;;;11.57;54.50
8061;BME280;4073;42.626;25.386;2023-01-08T06:55:02;97801.34;;;12.24;51.64
8061;BME280;4073;42.626;25.386;2023-01-08T06:57:29;97822.75;;;13.29;47.46
8061;BME280;4073;42.626;25.386;2023-01-08T06:59:55;97815.50;;;13.93;45.83
8061;BME280;4073;42.626;25.386;2023-01-08T07:02:20;97821.59;;;14.09;44.98
8061;BME280;4073;42.626;25.386;2023-01-08T07:04:46;97823.50;;;14.47;43.46
8061;BME280;4073;42.626;25.386;2023-01-08T07:07:13;97822.63;;;15.18;42.11
8061;BME280;4073;42.626;25.386;2023-01-08T07:09:40;97825.78;;;15.25;41.43
8061;BME280;4073;42.626;25.386;2023-01-08T07:12:06;97836.38;;;15.17;42.19
8061;BME280;4073;42.626;25.386;2023-01-08T07:14:33;97825.81;;;15.49;41.37
8061;BME280;4073;42.626;25.386;2023-01-08T07:16:58;97824.59;;;15.08;43.07
8061;BME280;4073;42.626;25.386;2023-01-08T07:19:23;97818.94;;;15.62;41.12
8061;BME280;4073;42.626;25.386;2023-01-08T07:21:49;97832.50;;;15.75;40.78
8061;BME280;4073;42.626;25.386;2023-01-08T07:24:14;97814.56;;;15.42;41.47
8061;BME280;4073;42.626;25.386;2023-01-08T07:26:40;97810.97;;;16.12;39.75
8061;BME280;4073;42.626;25.386;2023-01-08T07:29:05;97842.53;;;16.12;40.44
8061;BME280;4073;42.626;25.386;2023-01-08T07:31:31;97827.72;;;16.51;40.34
8061;BME280;4073;42.626;25.386;2023-01-08T07:33:56;97835.94;;;16.41;40.38
8061;BME280;4073;42.626;25.386;2023-01-08T07:36:22;97812.72;;;16.40;40.34
8061;BME280;4073;42.626;25.386;2023-01-08T07:38:48;97835.63;;;16.61;40.01
8061;BME280;4073;42.626;25.386;2023-01-08T07:41:15;97823.88;;;17.89;36.70
8061;BME280;4073;42.626;25.386;2023-01-08T07:43:40;97839.66;;;18.58;35.98
8061;BME280;4073;42.626;25.386;2023-01-08T07:46:06;97844.91;;;18.28;35.97
8061;BME280;4073;42.626;25.386;2023-01-08T07:48:31;97844.63;;;18.65;34.41
8061;BME280;4073;42.626;25.386;2023-01-08T07:51:03;97842.84;;;19.57;35.13
8061;BME280;4073;42.626;25.386;2023-01-08T07:53:29;97840.81;;;21.29;30.43
8061;BME280;4073;42.626;25.386;2023-01-08T07:56:06;97842.28;;;20.93;31.94
8061;BME280;4073;42.626;25.386;2023-01-08T07:58:32;97843.75;;;20.90;31.32
8061;BME280;4073;42.626;25.386;2023-01-08T08:00:58;97821.38;;;20.93;31.30
8061;BME280;4073;42.626;25.386;2023-01-08T08:03:23;97843.75;;;21.07;31.55
8061;BME280;4073;42.626;25.386;2023-01-08T08:05:49;97859.19;;;21.41;30.28
8061;BME280;4073;42.626;25.386;2023-01-08T08:08:15;97829.97;;;21.12;30.50
8061;BME280;4073;42.626;25.386;2023-01-08T08:10:42;97835.84;;;21.31;30.05
8061;BME280;4073;42.626;25.386;2023-01-08T08:13:08;97822.34;;;20.80;30.92
8061;BME280;4073;42.626;25.386;2023-01-08T08:15:34;97829.28;;;21.32;30.19
8061;BME280;4073;42.626;25.386;2023-01-08T08:18:00;97845.16;;;21.13;30.77
8061;BME280;4073;42.626;25.386;2023-01-08T08:20:26;97821.94;;;21.33;30.23
8061;BME280;4073;42.626;25.386;2023-01-08T08:22:51;97845.44;;;21.83;30.03
8061;BME280;4073;42.626;25.386;2023-01-08T08:25:17;97829.41;;;21.44;30.07
8061;BME280;4073;42.626;25.386;2023-01-08T08:27:43;97841.56;;;22.42;29.12
8061;BME280;4073;42.626;25.386;2023-01-08T08:30:10;97845.69;;;21.61;29.81
8061;BME280;4073;42.626;25.386;2023-01-08T08:32:36;97845.44;;;21.83;29.79
8061;BME280;4073;42.626;25.386;2023-01-08T08:35:02;97850.97;;;22.24;28.71
8061;BME280;4073;42.626;25.386;2023-01-08T08:37:28;97843.00;;;21.90;29.52
8061;BME280;4073;42.626;25.386;2023-01-08T08:39:54;97838.53;;;22.64;28.24
8061;BME280;4073;42.626;25.386;2023-01-08T08:42:19;97845.25;;;22.88;28.15
8061;BME280;4073;42.626;25.386;2023-01-08T08:44:45;97846.38;;;22.66;28.31
8061;BME280;4073;42.626;25.386;2023-01-08T08:47:10;97847.25;;;23.44;27.44
8061;BME280;4073;42.626;25.386;2023-01-08T08:49:36;97840.91;;;23.64;26.29
8061;BME280;4073;42.626;25.386;2023-01-08T08:52:05;97822.94;;;23.75;25.89
8061;BME280;4073;42.626;25.386;2023-01-08T08:54:30;97816.78;;;23.42;26.84
8061;BME280;4073;42.626;25.386;2023-01-08T08:56:56;97837.63;;;23.58;26.11
8061;BME280;4073;42.626;25.386;2023-01-08T08:59:21;97836.91;;;23.49;26.56
8061;BME280;4073;42.626;25.386;2023-01-08T09:01:47;97838.47;;;23.26;26.70
8061;BME280;4073;42.626;25.386;2023-01-08T09:04:12;97838.22;;;22.99;27.35
8061;BME280;4073;42.626;25.386;2023-01-08T09:06:38;97813.03;;;23.34;26.77
8061;BME280;4073;42.626;25.386;2023-01-08T09:09:03;97810.97;;;22.16;28.09
8061;BME280;4073;42.626;25.386;2023-01-08T09:11:30;97804.53;;;23.60;26.14
8061;BME280;4073;42.626;25.386;2023-01-08T09:13:55;97821.81;;;23.88;26.26
8061;BME280;4073;42.626;25.386;2023-01-08T09:16:21;97823.88;;;23.22;27.03
8061;BME280;4073;42.626;25.386;2023-01-08T09:18:46;97817.06;;;22.84;27.05
8061;BME280;4073;42.626;25.386;2023-01-08T09:21:13;97817.59;;;23.54;26.51
8061;BME280;4073;42.626;25.386;2023-01-08T09:23:39;97787.13;;;23.76;25.75
8061;BME280;4073;42.626;25.386;2023-01-08T09:26:05;97802.16;;;24.58;26.25
8061;BME280;4073;42.626;25.386;2023-01-08T09:28:30;97804.75;;;23.91;26.13
8061;BME280;4073;42.626;25.386;2023-01-08T09:31:00;97805.91;;;24.02;25.70
8061;BME280;4073;42.626;25.386;2023-01-08T09:33:25;97806.25;;;24.12;25.59
8061;BME280;4073;42.626;25.386;2023-01-08T09:35:50;97791.00;;;23.87;26.06
8061;BME280;4073;42.626;25.386;2023-01-08T09:38:16;97771.75;;;23.36;26.90
8061;BME280;4073;42.626;25.386;2023-01-08T09:40:54;97793.41;;;23.20;26.92
8061;BME280;4073;42.626;25.386;2023-01-08T09:43:22;97793.41;;;23.20;26.84
8061;BME280;4073;42.626;25.386;2023-01-08T09:45:54;97783.75;;;22.78;28.91
8061;BME280;4073;42.626;25.386;2023-01-08T09:48:30;97779.03;;;22.46;28.71
8061;BME280;4073;42.626;25.386;2023-01-08T09:50:57;97757.22;;;22.99;28.02
8061;BME280;4073;42.626;25.386;2023-01-08T09:53:23;97778.25;;;22.99;27.85
8061;BME280;4073;42.626;25.386;2023-01-08T09:55:55;97743.88;;;22.73;28.71
8061;BME280;4073;42.626;25.386;2023-01-08T10:01:04;97756.31;;;22.95;28.30
8061;BME280;4073;42.626;25.386;2023-01-08T10:03:44;97735.25;;;22.10;29.17
8061;BME280;4073;42.626;25.386;2023-01-08T10:06:13;97757.66;;;21.20;30.49
8061;BME280;4073;42.626;25.386;2023-01-08T10:08:40;97740.91;;;20.92;31.64
8061;BME280;4073;42.626;25.386;2023-01-08T10:11:07;97720.09;;;20.33;32.79
8061;BME280;4073;42.626;25.386;2023-01-08T10:13:36;97716.66;;;19.59;33.55
8061;BME280;4073;42.626;25.386;2023-01-08T10:16:07;97738.91;;;19.00;35.13
8061;BME280;4073;42.626;25.386;2023-01-08T10:18:34;97741.06;;;18.81;36.12
8061;BME280;4073;42.626;25.386;2023-01-08T10:20:59;97729.19;;;18.47;37.18
8061;BME280;4073;42.626;25.386;2023-01-08T10:23:24;97705.63;;;17.89;37.86
8061;BME280;4073;42.626;25.386;2023-01-08T10:26:01;97699.53;;;17.48;39.04
8061;BME280;4073;42.626;25.386;2023-01-08T10:28:32;97711.03;;;17.40;39.72
8061;BME280;4073;42.626;25.386;2023-01-08T10:31:05;97702.44;;;17.52;40.26
8061;BME280;4073;42.626;25.386;2023-01-08T10:33:43;97695.19;;;17.61;39.26
8061;BME280;4073;42.626;25.386;2023-01-08T10:36:21;97679.00;;;17.47;39.29
8061;BME280;4073;42.626;25.386;2023-01-08T10:38:58;97702.09;;;17.67;39.26
8061;BME280;4073;42.626;25.386;2023-01-08T10:41:24;97695.66;;;17.76;38.82
8061;BME280;4073;42.626;25.386;2023-01-08T10:44:01;97693.97;;;18.02;39.44
8061;BME280;4073;42.626;25.386;2023-01-08T10:46:42;97691.91;;;18.44;37.83
8061;BME280;4073;42.626;25.386;2023-01-08T10:49:37;97687.56;;;18.65;37.84
8061;BME280;4073;42.626;25.386;2023-01-08T10:54:45;97686.75;;;18.95;35.90
8061;BME280;4073;42.626;25.386;2023-01-08T10:57:29;97670.25;;;19.13;35.28
8061;BME280;4073;42.626;25.386;2023-01-08T10:59:55;97689.81;;;19.02;35.27
8061;BME280;4073;42.626;25.386;2023-01-08T11:02:36;97667.16;;;18.98;34.71
8061;BME280;4073;42.626;25.386;2023-01-08T11:05:04;97664.88;;;18.83;35.71
8061;BME280;4073;42.626;25.386;2023-01-08T11:07:32;97667.72;;;18.78;36.24
8061;BME280;4073;42.626;25.386;2023-01-08T11:10:00;97655.56;;;18.67;35.33
8061;BME280;4073;42.626;25.386;2023-01-08T11:12:33;97668.56;;;18.56;35.21
8061;BME280;4073;42.626;25.386;2023-01-08T11:15:00;97663.03;;;18.39;35.56
8061;BME280;4073;42.626;25.386;2023-01-08T11:17:26;97662.13;;;18.44;36.16
8061;BME280;4073;42.626;25.386;2023-01-08T11:19:52;97661.97;;;18.40;35.41
8061;BME280;4073;42.626;25.386;2023-01-08T11:22:23;97662.94;;;18.44;35.19
8061;BME280;4073;42.626;25.386;2023-01-08T11:24:50;97638.19;;;18.15;35.28
8061;BME280;4073;42.626;25.386;2023-01-08T11:27:35;97658.63;;;18.43;34.84
8061;BME280;4073;42.626;25.386;2023-01-08T11:35:30;97652.53;;;18.38;35.48
8061;BME280;4073;42.626;25.386;2023-01-08T11:37:59;97649.50;;;18.39;35.79
8061;BME280;4073;42.626;25.386;2023-01-08T11:40:51;97619.88;;;18.12;36.50
8061;BME280;4073;42.626;25.386;2023-01-08T11:46:41;97643.13;;;18.13;36.82
8061;BME280;4073;42.626;25.386;2023-01-08T12:05:47;97627.88;;;17.73;38.41
8061;BME280;4073;42.626;25.386;2023-01-08T12:08:26;97627.28;;;17.62;38.29
8061;BME280;4073;42.626;25.386;2023-01-08T12:11:01;97625.03;;;17.42;38.56
8061;BME280;4073;42.626;25.386;2023-01-08T12:21:45;97615.47;;;16.69;41.07
8061;BME280;4073;42.626;25.386;2023-01-08T12:39:56;97600.19;;;16.05;42.70
8061;BME280;4073;42.626;25.386;2023-01-08T12:42:28;97582.22;;;15.82;42.87
8061;BME280;4073;42.626;25.386;2023-01-08T12:44:56;97592.66;;;15.89;43.77
8061;BME280;4073;42.626;25.386;2023-01-08T12:47:26;97593.19;;;16.04;43.18
8061;BME280;4073;42.626;25.386;2023-01-08T12:50:08;97601.41;;;16.13;42.47
8061;BME280;4073;42.626;25.386;2023-01-08T12:52:57;97574.56;;;15.89;42.58
8061;BME280;4073;42.626;25.386;2023-01-08T12:55:50;97585.97;;;15.68;43.47
8061;BME280;4073;42.626;25.386;2023-01-08T13:03:57;97606.03;;;15.62;44.28
8061;BME280;4073;42.626;25.386;2023-01-08T13:06:23;97603.19;;;15.53;44.55
8061;BME280;4073;42.626;25.386;2023-01-08T13:08:55;97600.75;;;15.33;45.10
8061;BME280;4073;42.626;25.386;2023-01-08T13:11:33;97612.88;;;15.30;45.44
8061;BME280;4073;42.626;25.386;2023-01-08T13:16:28;97601.25;;;15.16;45.62
8061;BME280;4073;42.626;25.386;2023-01-08T13:18:58;97608.81;;;14.96;46.09
8061;BME280;4073;42.626;25.386;2023-01-08T13:21:34;97602.28;;;14.78;46.69
8061;BME280;4073;42.626;25.386;2023-01-08T13:24:32;97601.38;;;14.64;47.06
8061;BME280;4073;42.626;25.386;2023-01-08T13:29:42;97607.50;;;14.46;47.71
8061;BME280;4073;42.626;25.386;2023-01-08T13:35:18;97604.78;;;14.23;48.75
8061;BME280;4073;42.626;25.386;2023-01-08T13:37:47;97581.91;;;13.92;49.14
8061;BME280;4073;42.626;25.386;2023-01-08T13:40:52;97610.31;;;14.03;49.38
8061;BME280;4073;42.626;25.386;2023-01-08T13:43:28;97611.94;;;14.04;49.27
8061;BME280;4073;42.626;25.386;2023-01-08T13:48:24;97613.13;;;13.88;49.94
8061;BME280;4073;42.626;25.386;2023-01-08T13:50:51;97590.63;;;13.79;50.43
8061;BME280;4073;42.626;25.386;2023-01-08T13:53:18;97605.22;;;13.73;50.47
8061;BME280;4073;42.626;25.386;2023-01-08T13:55:54;97600.41;;;13.65;50.79
8061;BME280;4073;42.626;25.386;2023-01-08T13:58:30;97606.88;;;13.64;50.11
8061;BME280;4073;42.626;25.386;2023-01-08T14:00:58;97604.06;;;13.40;50.74
8061;BME280;4073;42.626;25.386;2023-01-08T14:03:35;97610.53;;;13.44;51.16
8061;BME280;4073;42.626;25.386;2023-01-08T14:06:27;97610.88;;;13.28;51.26
8061;BME280;4073;42.626;25.386;2023-01-08T14:08:59;97611.72;;;13.23;51.57
8061;BME280;4073;42.626;25.386;2023-01-08T14:14:04;97603.00;;;12.87;53.20
8061;BME280;4073;42.626;25.386;2023-01-08T14:16:29;97582.78;;;12.46;53.83
8061;BME280;4073;42.626;25.386;2023-01-08T14:19:00;97603.41;;;12.56;54.14
8061;BME280;4073;42.626;25.386;2023-01-08T14:21:26;97582.91;;;12.01;55.61
8061;BME280;4073;42.626;25.386;2023-01-08T14:23:52;97586.41;;;12.02;55.93
8061;BME280;4073;42.626;25.386;2023-01-08T14:26:32;97609.94;;;12.10;56.55
8061;BME280;4073;42.626;25.386;2023-01-08T14:29:00;97590.97;;;11.86;56.98
8061;BME280;4073;42.626;25.386;2023-01-08T14:31:26;97593.66;;;11.86;57.31
8061;BME280;4073;42.626;25.386;2023-01-08T14:33:53;97607.03;;;11.86;57.56
8061;BME280;4073;42.626;25.386;2023-01-08T14:36:19;97608.66;;;11.77;57.99
8061;BME280;4073;42.626;25.386;2023-01-08T14:38:46;97589.59;;;11.49;58.62
8061;BME280;4073;42.626;25.386;2023-01-08T14:41:20;97611.28;;;11.52;58.62
8061;BME280;4073;42.626;25.386;2023-01-08T14:43:49;97599.22;;;11.45;58.53
8061;BME280;4073;42.626;25.386;2023-01-08T14:46:24;97609.41;;;11.38;58.70
8061;BME280;4073;42.626;25.386;2023-01-08T14:48:51;97610.19;;;11.28;59.42
8061;BME280;4073;42.626;25.386;2023-01-08T14:51:26;97616.03;;;11.15;59.66